sensor_id;sensor_type;location;lat;lon;timestamp;P1;durP1;ratioP1;P2;durP2;ratioP2
71856;SDS011;63344;46.980;28.882;2023-04-24T00:01:25;10.90;;;4.88;;
71856;SDS011;63344;46.980;28.882;2023-04-24T00:03:53;7.50;;;4.72;;
71856;SDS011;63344;46.980;28.882;2023-04-24T00:06:21;11.07;;;4.45;;
71856;SDS011;63344;46.980;28.882;2023-04-24T00:11:17;8.90;;;5.47;;
71856;SDS011;63344;46.980;28.882;2023-04-24T00:13:44;12.27;;;6.35;;
71856;SDS011;63344;46.980;28.882;2023-04-24T00:16:12;6.38;;;3.80;;
71856;SDS011;63344;46.980;28.882;2023-04-24T00:18:39;7.20;;;4.32;;
71856;SDS011;63344;46.980;28.882;2023-04-24T00:21:06;9.52;;;4.70;;
71856;SDS011;63344;46.980;28.882;2023-04-24T00:23:34;9.10;;;5.55;;
71856;SDS011;63344;46.980;28.882;2023-04-24T00:26:01;10.70;;;6.40;;
71856;SDS011;63344;46.980;28.882;2023-04-24T00:28:29;8.63;;;4.97;;
71856;SDS011;63344;46.980;28.882;2023-04-24T00:30:58;11.05;;;4.78;;
71856;SDS011;63344;46.980;28.882;2023-04-24T00:33:25;9.90;;;5.40;;
71856;SDS011;63344;46.980;28.882;2023-04-24T00:35:53;8.98;;;5.57;;
71856;SDS011;63344;46.980;28.882;2023-04-24T00:38:20;16.40;;;6.45;;
71856;SDS011;63344;46.980;28.882;2023-04-24T00:40:48;9.52;;;6.15;;
71856;SDS011;63344;46.980;28.882;2023-04-24T00:43:16;11.52;;;5.70;;
71856;SDS011;63344;46.980;28.882;2023-04-24T00:45:44;12.60;;;5.80;;
71856;SDS011;63344;46.980;28.882;2023-04-24T00:48:11;10.55;;;5.70;;
71856;SDS011;63344;46.980;28.882;2023-04-24T00:50:39;10.57;;;5.65;;
71856;SDS011;63344;46.980;28.882;2023-04-24T00:53:06;12.93;;;5.55;;
71856;SDS011;63344;46.980;28.882;2023-04-24T00:55:33;10.77;;;5.18;;
71856;SDS011;63344;46.980;28.882;2023-04-24T00:58:01;10.25;;;5.95;;
71856;SDS011;63344;46.980;28.882;2023-04-24T01:00:28;14.30;;;6.63;;
71856;SDS011;63344;46.980;28.882;2023-04-24T01:02:57;13.68;;;8.23;;
71856;SDS011;63344;46.980;28.882;2023-04-24T01:05:29;14.45;;;8.32;;
71856;SDS011;63344;46.980;28.882;2023-04-24T01:07:56;13.77;;;7.72;;
71856;SDS011;63344;46.980;28.882;2023-04-24T01:10:25;13.65;;;7.47;;
71856;SDS011;63344;46.980;28.882;2023-04-24T01:12:53;14.88;;;8.13;;
71856;SDS011;63344;46.980;28.882;2023-04-24T01:15:21;12.50;;;6.95;;
71856;SDS011;63344;46.980;28.882;2023-04-24T01:17:48;11.07;;;7.30;;
71856;SDS011;63344;46.980;28.882;2023-04-24T01:20:17;13.63;;;6.97;;
71856;SDS011;63344;46.980;28.882;2023-04-24T01:22:44;13.23;;;7.90;;
71856;SDS011;63344;46.980;28.882;2023-04-24T01:25:11;11.70;;;6.93;;
71856;SDS011;63344;46.980;28.882;2023-04-24T01:27:39;13.77;;;8.00;;
71856;SDS011;63344;46.980;28.882;2023-04-24T01:30:06;16.08;;;9.45;;
71856;SDS011;63344;46.980;28.882;2023-04-24T01:32:34;14.57;;;8.82;;
71856;SDS011;63344;46.980;28.882;2023-04-24T01:35:02;12.07;;;7.50;;
71856;SDS011;63344;46.980;28.882;2023-04-24T01:37:30;14.40;;;7.85;;
71856;SDS011;63344;46.980;28.882;2023-04-24T01:39:59;13.15;;;5.75;;
71856;SDS011;63344;46.980;28.882;2023-04-24T01:42:26;13.82;;;7.43;;
71856;SDS011;63344;46.980;28.882;2023-04-24T01:44:54;12.98;;;7.25;;
71856;SDS011;63344;46.980;28.882;2023-04-24T01:47:21;12.85;;;7.63;;
71856;SDS011;63344;46.980;28.882;2023-04-24T01:49:50;10.35;;;6.70;;
71856;SDS011;63344;46.980;28.882;2023-04-24T01:52:17;12.18;;;7.18;;
71856;SDS011;63344;46.980;28.882;2023-04-24T01:54:45;13.90;;;8.27;;
71856;SDS011;63344;46.980;28.882;2023-04-24T01:57:13;10.52;;;6.10;;
71856;SDS011;63344;46.980;28.882;2023-04-24T01:59:41;16.05;;;7.32;;
71856;SDS011;63344;46.980;28.882;2023-04-24T02:02:13;11.93;;;6.65;;
71856;SDS011;63344;46.980;28.882;2023-04-24T02:04:40;16.45;;;8.52;;
71856;SDS011;63344;46.980;28.882;2023-04-24T02:07:07;11.48;;;7.05;;
71856;SDS011;63344;46.980;28.882;2023-04-24T02:09:35;11.68;;;5.78;;
71856;SDS011;63344;46.980;28.882;2023-04-24T02:12:02;13.85;;;5.85;;
71856;SDS011;63344;46.980;28.882;2023-04-24T02:14:29;11.30;;;6.30;;
71856;SDS011;63344;46.980;28.882;2023-04-24T02:16:56;13.00;;;6.03;;
71856;SDS011;63344;46.980;28.882;2023-04-24T02:19:27;10.65;;;6.20;;
71856;SDS011;63344;46.980;28.882;2023-04-24T02:21:54;12.43;;;6.65;;
71856;SDS011;63344;46.980;28.882;2023-04-24T02:24:22;14.25;;;7.15;;
71856;SDS011;63344;46.980;28.882;2023-04-24T02:26:49;13.38;;;6.93;;
71856;SDS011;63344;46.980;28.882;2023-04-24T02:29:16;17.42;;;9.48;;
71856;SDS011;63344;46.980;28.882;2023-04-24T02:31:43;10.75;;;6.57;;
71856;SDS011;63344;46.980;28.882;2023-04-24T02:34:11;10.05;;;5.85;;
71856;SDS011;63344;46.980;28.882;2023-04-24T02:36:38;11.88;;;7.55;;
71856;SDS011;63344;46.980;28.882;2023-04-24T02:39:06;17.17;;;8.45;;
71856;SDS011;63344;46.980;28.882;2023-04-24T02:41:33;19.73;;;7.35;;
71856;SDS011;63344;46.980;28.882;2023-04-24T02:44:00;15.10;;;8.68;;
71856;SDS011;63344;46.980;28.882;2023-04-24T02:46:28;18.38;;;8.50;;
71856;SDS011;63344;46.980;28.882;2023-04-24T02:48:55;14.07;;;8.25;;
71856;SDS011;63344;46.980;28.882;2023-04-24T02:51:22;14.75;;;7.85;;
71856;SDS011;63344;46.980;28.882;2023-04-24T02:53:50;15.57;;;8.15;;
71856;SDS011;63344;46.980;28.882;2023-04-24T02:56:17;17.88;;;8.35;;
71856;SDS011;63344;46.980;28.882;2023-04-24T02:58:44;13.85;;;7.25;;
71856;SDS011;63344;46.980;28.882;2023-04-24T03:01:11;12.40;;;6.20;;
71856;SDS011;63344;46.980;28.882;2023-04-24T03:03:39;10.98;;;6.25;;
71856;SDS011;63344;46.980;28.882;2023-04-24T03:06:06;13.45;;;7.03;;
71856;SDS011;63344;46.980;28.882;2023-04-24T03:08:35;15.45;;;7.00;;
71856;SDS011;63344;46.980;28.882;2023-04-24T03:11:02;15.63;;;7.43;;
71856;SDS011;63344;46.980;28.882;2023-04-24T03:13:29;12.60;;;7.43;;
71856;SDS011;63344;46.980;28.882;2023-04-24T03:15:57;14.13;;;8.30;;
71856;SDS011;63344;46.980;28.882;2023-04-24T03:18:24;14.25;;;8.23;;
71856;SDS011;63344;46.980;28.882;2023-04-24T03:20:52;20.73;;;9.57;;
71856;SDS011;63344;46.980;28.882;2023-04-24T03:23:19;17.85;;;9.52;;
71856;SDS011;63344;46.980;28.882;2023-04-24T03:25:46;19.55;;;9.57;;
71856;SDS011;63344;46.980;28.882;2023-04-24T03:28:15;21.63;;;10.77;;
71856;SDS011;63344;46.980;28.882;2023-04-24T03:30:42;20.48;;;10.50;;
71856;SDS011;63344;46.980;28.882;2023-04-24T03:33:10;17.77;;;10.50;;
71856;SDS011;63344;46.980;28.882;2023-04-24T03:35:39;16.25;;;9.32;;
71856;SDS011;63344;46.980;28.882;2023-04-24T03:38:10;14.27;;;7.88;;
71856;SDS011;63344;46.980;28.882;2023-04-24T03:40:37;16.58;;;9.07;;
71856;SDS011;63344;46.980;28.882;2023-04-24T03:43:05;15.98;;;8.35;;
71856;SDS011;63344;46.980;28.882;2023-04-24T03:45:32;13.65;;;7.80;;
71856;SDS011;63344;46.980;28.882;2023-04-24T03:48:00;12.90;;;8.30;;
71856;SDS011;63344;46.980;28.882;2023-04-24T03:50:27;11.88;;;6.35;;
71856;SDS011;63344;46.980;28.882;2023-04-24T03:52:56;11.85;;;6.72;;
71856;SDS011;63344;46.980;28.882;2023-04-24T03:55:23;13.43;;;6.85;;
71856;SDS011;63344;46.980;28.882;2023-04-24T03:57:50;12.65;;;7.00;;
71856;SDS011;63344;46.980;28.882;2023-04-24T04:00:17;16.02;;;6.80;;
71856;SDS011;63344;46.980;28.882;2023-04-24T04:02:45;18.40;;;7.78;;
71856;SDS011;63344;46.980;28.882;2023-04-24T04:05:13;13.93;;;7.75;;
71856;SDS011;63344;46.980;28.882;2023-04-24T04:07:40;13.80;;;7.63;;
71856;SDS011;63344;46.980;28.882;2023-04-24T04:10:08;11.98;;;7.00;;
71856;SDS011;63344;46.980;28.882;2023-04-24T04:12:50;10.25;;;6.30;;
71856;SDS011;63344;46.980;28.882;2023-04-24T04:15:20;13.63;;;8.02;;
71856;SDS011;63344;46.980;28.882;2023-04-24T04:17:47;15.93;;;7.43;;
71856;SDS011;63344;46.980;28.882;2023-04-24T04:20:14;12.25;;;7.30;;
71856;SDS011;63344;46.980;28.882;2023-04-24T04:22:42;11.82;;;7.10;;
71856;SDS011;63344;46.980;28.882;2023-04-24T04:25:10;12.70;;;6.75;;
71856;SDS011;63344;46.980;28.882;2023-04-24T04:27:38;15.50;;;7.88;;
71856;SDS011;63344;46.980;28.882;2023-04-24T04:30:07;19.40;;;10.02;;
71856;SDS011;63344;46.980;28.882;2023-04-24T04:32:35;12.98;;;6.65;;
71856;SDS011;63344;46.980;28.882;2023-04-24T04:35:04;15.32;;;8.80;;
71856;SDS011;63344;46.980;28.882;2023-04-24T04:37:35;15.65;;;8.35;;
71856;SDS011;63344;46.980;28.882;2023-04-24T04:40:02;12.07;;;7.28;;
71856;SDS011;63344;46.980;28.882;2023-04-24T04:42:37;15.98;;;8.18;;
71856;SDS011;63344;46.980;28.882;2023-04-24T04:45:08;11.88;;;6.80;;
71856;SDS011;63344;46.980;28.882;2023-04-24T04:47:51;12.10;;;7.03;;
71856;SDS011;63344;46.980;28.882;2023-04-24T04:50:18;7.72;;;6.43;;
71856;SDS011;63344;46.980;28.882;2023-04-24T04:55:14;12.75;;;8.20;;
71856;SDS011;63344;46.980;28.882;2023-04-24T04:57:42;12.13;;;8.10;;
71856;SDS011;63344;46.980;28.882;2023-04-24T05:00:10;13.13;;;8.10;;
71856;SDS011;63344;46.980;28.882;2023-04-24T05:02:38;15.55;;;8.05;;
71856;SDS011;63344;46.980;28.882;2023-04-24T05:05:06;14.48;;;7.75;;
71856;SDS011;63344;46.980;28.882;2023-04-24T05:07:36;13.75;;;8.50;;
71856;SDS011;63344;46.980;28.882;2023-04-24T05:10:03;7.82;;;6.30;;
71856;SDS011;63344;46.980;28.882;2023-04-24T05:12:31;8.60;;;6.70;;
71856;SDS011;63344;46.980;28.882;2023-04-24T05:14:58;8.55;;;5.50;;
71856;SDS011;63344;46.980;28.882;2023-04-24T05:17:25;11.43;;;6.15;;
71856;SDS011;63344;46.980;28.882;2023-04-24T05:19:52;8.63;;;4.97;;
71856;SDS011;63344;46.980;28.882;2023-04-24T05:22:20;8.90;;;5.63;;
71856;SDS011;63344;46.980;28.882;2023-04-24T05:24:48;7.85;;;5.28;;
71856;SDS011;63344;46.980;28.882;2023-04-24T05:27:32;10.15;;;5.40;;
71856;SDS011;63344;46.980;28.882;2023-04-24T05:29:59;8.23;;;5.80;;
71856;SDS011;63344;46.980;28.882;2023-04-24T05:32:27;9.77;;;5.40;;
71856;SDS011;63344;46.980;28.882;2023-04-24T05:34:54;6.75;;;4.90;;
71856;SDS011;63344;46.980;28.882;2023-04-24T05:37:23;8.10;;;5.70;;
71856;SDS011;63344;46.980;28.882;2023-04-24T05:39:51;8.05;;;4.93;;
71856;SDS011;63344;46.980;28.882;2023-04-24T05:42:18;8.25;;;5.68;;
71856;SDS011;63344;46.980;28.882;2023-04-24T05:44:46;10.18;;;6.03;;
71856;SDS011;63344;46.980;28.882;2023-04-24T05:47:13;10.82;;;5.70;;
71856;SDS011;63344;46.980;28.882;2023-04-24T05:49:41;13.15;;;6.45;;
71856;SDS011;63344;46.980;28.882;2023-04-24T05:52:09;9.52;;;6.25;;
71856;SDS011;63344;46.980;28.882;2023-04-24T05:54:36;9.65;;;6.00;;
71856;SDS011;63344;46.980;28.882;2023-04-24T05:57:03;10.82;;;6.43;;
71856;SDS011;63344;46.980;28.882;2023-04-24T05:59:36;9.52;;;6.22;;
71856;SDS011;63344;46.980;28.882;2023-04-24T06:02:05;10.40;;;5.90;;
71856;SDS011;63344;46.980;28.882;2023-04-24T06:04:33;11.35;;;6.47;;
71856;SDS011;63344;46.980;28.882;2023-04-24T06:07:01;9.90;;;6.45;;
71856;SDS011;63344;46.980;28.882;2023-04-24T06:09:30;12.18;;;6.00;;
71856;SDS011;63344;46.980;28.882;2023-04-24T06:11:58;8.88;;;5.75;;
71856;SDS011;63344;46.980;28.882;2023-04-24T06:14:26;11.20;;;6.78;;
71856;SDS011;63344;46.980;28.882;2023-04-24T06:16:54;8.50;;;5.63;;
71856;SDS011;63344;46.980;28.882;2023-04-24T06:19:21;11.00;;;6.72;;
71856;SDS011;63344;46.980;28.882;2023-04-24T06:21:48;6.57;;;3.92;;
71856;SDS011;63344;46.980;28.882;2023-04-24T06:24:18;9.20;;;4.65;;
71856;SDS011;63344;46.980;28.882;2023-04-24T06:27:01;11.52;;;6.18;;
71856;SDS011;63344;46.980;28.882;2023-04-24T06:29:28;9.25;;;5.07;;
71856;SDS011;63344;46.980;28.882;2023-04-24T06:31:56;11.48;;;5.47;;
71856;SDS011;63344;46.980;28.882;2023-04-24T06:34:23;7.00;;;4.70;;
71856;SDS011;63344;46.980;28.882;2023-04-24T06:36:51;7.90;;;4.50;;
71856;SDS011;63344;46.980;28.882;2023-04-24T06:39:18;9.07;;;5.13;;
71856;SDS011;63344;46.980;28.882;2023-04-24T06:41:45;6.80;;;4.65;;
71856;SDS011;63344;46.980;28.882;2023-04-24T06:44:13;7.95;;;4.90;;
71856;SDS011;63344;46.980;28.882;2023-04-24T06:46:43;8.95;;;5.03;;
71856;SDS011;63344;46.980;28.882;2023-04-24T06:49:12;7.10;;;4.57;;
71856;SDS011;63344;46.980;28.882;2023-04-24T06:51:42;8.10;;;3.80;;
71856;SDS011;63344;46.980;28.882;2023-04-24T06:54:10;6.10;;;4.10;;
71856;SDS011;63344;46.980;28.882;2023-04-24T06:56:37;5.40;;;3.70;;
71856;SDS011;63344;46.980;28.882;2023-04-24T06:59:24;5.15;;;3.75;;
71856;SDS011;63344;46.980;28.882;2023-04-24T07:01:53;2.72;;;1.85;;
71856;SDS011;63344;46.980;28.882;2023-04-24T07:04:22;4.85;;;3.53;;
71856;SDS011;63344;46.980;28.882;2023-04-24T07:06:52;5.35;;;3.40;;
71856;SDS011;63344;46.980;28.882;2023-04-24T07:09:33;8.02;;;4.13;;
71856;SDS011;63344;46.980;28.882;2023-04-24T07:12:02;5.38;;;3.70;;
71856;SDS011;63344;46.980;28.882;2023-04-24T07:14:29;6.50;;;3.63;;
71856;SDS011;63344;46.980;28.882;2023-04-24T07:17:00;4.30;;;3.25;;
71856;SDS011;63344;46.980;28.882;2023-04-24T07:19:29;7.30;;;3.17;;
71856;SDS011;63344;46.980;28.882;2023-04-24T07:21:57;5.25;;;2.70;;
71856;SDS011;63344;46.980;28.882;2023-04-24T07:24:25;6.00;;;3.83;;
71856;SDS011;63344;46.980;28.882;2023-04-24T07:26:57;5.75;;;3.90;;
71856;SDS011;63344;46.980;28.882;2023-04-24T07:29:25;4.93;;;3.30;;
71856;SDS011;63344;46.980;28.882;2023-04-24T07:31:53;6.63;;;3.60;;
71856;SDS011;63344;46.980;28.882;2023-04-24T07:34:20;5.95;;;3.25;;
71856;SDS011;63344;46.980;28.882;2023-04-24T07:36:48;5.10;;;3.28;;
71856;SDS011;63344;46.980;28.882;2023-04-24T07:39:15;6.00;;;3.45;;
71856;SDS011;63344;46.980;28.882;2023-04-24T07:41:42;4.93;;;3.00;;
71856;SDS011;63344;46.980;28.882;2023-04-24T07:44:10;6.03;;;3.33;;
71856;SDS011;63344;46.980;28.882;2023-04-24T07:46:38;5.13;;;2.97;;
71856;SDS011;63344;46.980;28.882;2023-04-24T07:49:05;6.10;;;3.10;;
71856;SDS011;63344;46.980;28.882;2023-04-24T07:51:48;5.53;;;3.00;;
71856;SDS011;63344;46.980;28.882;2023-04-24T07:54:17;4.53;;;3.10;;
71856;SDS011;63344;46.980;28.882;2023-04-24T07:56:44;5.57;;;3.33;;
71856;SDS011;63344;46.980;28.882;2023-04-24T07:59:14;5.93;;;3.00;;
71856;SDS011;63344;46.980;28.882;2023-04-24T08:01:43;5.57;;;2.90;;
71856;SDS011;63344;46.980;28.882;2023-04-24T08:04:10;6.32;;;3.30;;
71856;SDS011;63344;46.980;28.882;2023-04-24T08:06:38;5.32;;;3.38;;
71856;SDS011;63344;46.980;28.882;2023-04-24T08:09:08;9.02;;;3.05;;
71856;SDS011;63344;46.980;28.882;2023-04-24T08:11:38;6.88;;;3.00;;
71856;SDS011;63344;46.980;28.882;2023-04-24T08:14:06;4.63;;;2.90;;
71856;SDS011;63344;46.980;28.882;2023-04-24T08:16:34;4.82;;;3.10;;
71856;SDS011;63344;46.980;28.882;2023-04-24T08:19:02;4.68;;;3.17;;
71856;SDS011;63344;46.980;28.882;2023-04-24T08:21:31;5.35;;;2.40;;
71856;SDS011;63344;46.980;28.882;2023-04-24T08:23:58;5.78;;;3.22;;
71856;SDS011;63344;46.980;28.882;2023-04-24T08:26:26;7.55;;;3.17;;
71856;SDS011;63344;46.980;28.882;2023-04-24T08:28:55;7.07;;;2.90;;
71856;SDS011;63344;46.980;28.882;2023-04-24T08:31:23;6.72;;;3.00;;
71856;SDS011;63344;46.980;28.882;2023-04-24T08:33:52;4.47;;;3.00;;
71856;SDS011;63344;46.980;28.882;2023-04-24T08:36:21;4.30;;;3.13;;
71856;SDS011;63344;46.980;28.882;2023-04-24T08:39:03;5.65;;;3.90;;
71856;SDS011;63344;46.980;28.882;2023-04-24T08:41:33;5.85;;;3.10;;
71856;SDS011;63344;46.980;28.882;2023-04-24T08:44:02;5.40;;;3.13;;
71856;SDS011;63344;46.980;28.882;2023-04-24T08:46:30;5.82;;;3.22;;
71856;SDS011;63344;46.980;28.882;2023-04-24T08:49:00;4.70;;;3.17;;
71856;SDS011;63344;46.980;28.882;2023-04-24T08:51:29;5.53;;;3.47;;
71856;SDS011;63344;46.980;28.882;2023-04-24T08:53:57;5.53;;;3.03;;
71856;SDS011;63344;46.980;28.882;2023-04-24T08:56:25;3.95;;;2.92;;
71856;SDS011;63344;46.980;28.882;2023-04-24T08:58:54;4.70;;;3.22;;
71856;SDS011;63344;46.980;28.882;2023-04-24T09:01:22;3.45;;;2.70;;
71856;SDS011;63344;46.980;28.882;2023-04-24T09:03:51;5.22;;;2.75;;
71856;SDS011;63344;46.980;28.882;2023-04-24T09:06:22;3.38;;;3.08;;
71856;SDS011;63344;46.980;28.882;2023-04-24T09:08:49;4.30;;;2.67;;
71856;SDS011;63344;46.980;28.882;2023-04-24T09:11:20;4.35;;;3.55;;
71856;SDS011;63344;46.980;28.882;2023-04-24T09:13:50;4.50;;;3.40;;
71856;SDS011;63344;46.980;28.882;2023-04-24T09:16:19;4.80;;;3.35;;
71856;SDS011;63344;46.980;28.882;2023-04-24T09:18:46;3.38;;;3.08;;
71856;SDS011;63344;46.980;28.882;2023-04-24T09:21:15;4.38;;;3.22;;
71856;SDS011;63344;46.980;28.882;2023-04-24T09:23:44;5.32;;;3.15;;
71856;SDS011;63344;46.980;28.882;2023-04-24T09:26:12;3.85;;;3.10;;
71856;SDS011;63344;46.980;28.882;2023-04-24T09:28:43;5.93;;;3.03;;
71856;SDS011;63344;46.980;28.882;2023-04-24T09:31:14;4.38;;;2.58;;
71856;SDS011;63344;46.980;28.882;2023-04-24T09:34:20;6.18;;;2.80;;
71856;SDS011;63344;46.980;28.882;2023-04-24T09:36:40;5.38;;;3.10;;
71856;SDS011;63344;46.980;28.882;2023-04-24T09:39:09;4.57;;;3.42;;
71856;SDS011;63344;46.980;28.882;2023-04-24T09:44:25;4.20;;;2.85;;
71856;SDS011;63344;46.980;28.882;2023-04-24T09:46:54;3.72;;;2.47;;
71856;SDS011;63344;46.980;28.882;2023-04-24T09:49:29;4.65;;;2.85;;
71856;SDS011;63344;46.980;28.882;2023-04-24T09:52:05;4.88;;;3.03;;
71856;SDS011;63344;46.980;28.882;2023-04-24T09:54:33;3.17;;;2.70;;
71856;SDS011;63344;46.980;28.882;2023-04-24T09:57:04;5.07;;;2.72;;
71856;SDS011;63344;46.980;28.882;2023-04-24T09:59:31;5.93;;;2.95;;
71856;SDS011;63344;46.980;28.882;2023-04-24T10:02:02;5.15;;;2.80;;
71856;SDS011;63344;46.980;28.882;2023-04-24T10:04:33;4.82;;;3.28;;
71856;SDS011;63344;46.980;28.882;2023-04-24T10:07:14;3.95;;;3.05;;
71856;SDS011;63344;46.980;28.882;2023-04-24T10:09:41;4.40;;;3.00;;
71856;SDS011;63344;46.980;28.882;2023-04-24T10:12:09;4.90;;;3.20;;
71856;SDS011;63344;46.980;28.882;2023-04-24T10:14:38;4.05;;;3.10;;
71856;SDS011;63344;46.980;28.882;2023-04-24T10:17:09;3.95;;;2.92;;
71856;SDS011;63344;46.980;28.882;2023-04-24T10:19:37;4.90;;;3.17;;
71856;SDS011;63344;46.980;28.882;2023-04-24T10:22:08;5.97;;;3.53;;
71856;SDS011;63344;46.980;28.882;2023-04-24T10:24:38;6.70;;;2.90;;
71856;SDS011;63344;46.980;28.882;2023-04-24T10:27:06;5.03;;;3.28;;
71856;SDS011;63344;46.980;28.882;2023-04-24T10:32:02;5.65;;;3.38;;
71856;SDS011;63344;46.980;28.882;2023-04-24T10:34:29;5.60;;;3.15;;
71856;SDS011;63344;46.980;28.882;2023-04-24T10:36:57;4.38;;;3.92;;
71856;SDS011;63344;46.980;28.882;2023-04-24T10:39:39;3.83;;;2.47;;
71856;SDS011;63344;46.980;28.882;2023-04-24T10:42:15;3.88;;;3.10;;
71856;SDS011;63344;46.980;28.882;2023-04-24T10:44:42;4.90;;;2.72;;
71856;SDS011;63344;46.980;28.882;2023-04-24T10:47:14;6.10;;;3.20;;
71856;SDS011;63344;46.980;28.882;2023-04-24T10:49:50;4.57;;;2.90;;
71856;SDS011;63344;46.980;28.882;2023-04-24T10:52:18;4.68;;;2.58;;
71856;SDS011;63344;46.980;28.882;2023-04-24T10:54:46;3.40;;;2.70;;
71856;SDS011;63344;46.980;28.882;2023-04-24T10:59:49;3.88;;;2.63;;
71856;SDS011;63344;46.980;28.882;2023-04-24T11:02:19;4.30;;;2.90;;
71856;SDS011;63344;46.980;28.882;2023-04-24T11:05:06;5.68;;;2.58;;
71856;SDS011;63344;46.980;28.882;2023-04-24T11:10:44;4.63;;;2.53;;
71856;SDS011;63344;46.980;28.882;2023-04-24T11:13:15;4.97;;;2.47;;
71856;SDS011;63344;46.980;28.882;2023-04-24T11:15:43;3.30;;;1.75;;
71856;SDS011;63344;46.980;28.882;2023-04-24T11:18:14;4.53;;;3.08;;
71856;SDS011;63344;46.980;28.882;2023-04-24T11:20:43;4.15;;;2.20;;
71856;SDS011;63344;46.980;28.882;2023-04-24T11:23:12;3.40;;;2.38;;
71856;SDS011;63344;46.980;28.882;2023-04-24T11:25:41;4.35;;;2.47;;
71856;SDS011;63344;46.980;28.882;2023-04-24T11:28:09;6.82;;;2.45;;
71856;SDS011;63344;46.980;28.882;2023-04-24T11:30:42;4.97;;;3.00;;
71856;SDS011;63344;46.980;28.882;2023-04-24T11:33:10;5.57;;;2.72;;
71856;SDS011;63344;46.980;28.882;2023-04-24T11:35:39;6.53;;;2.72;;
71856;SDS011;63344;46.980;28.882;2023-04-24T11:38:07;3.55;;;2.40;;
71856;SDS011;63344;46.980;28.882;2023-04-24T11:40:42;4.88;;;2.90;;
71856;SDS011;63344;46.980;28.882;2023-04-24T11:43:09;5.32;;;2.80;;
71856;SDS011;63344;46.980;28.882;2023-04-24T11:45:37;6.78;;;3.20;;
71856;SDS011;63344;46.980;28.882;2023-04-24T11:48:05;8.25;;;3.10;;
71856;SDS011;63344;46.980;28.882;2023-04-24T11:50:34;7.68;;;2.75;;
71856;SDS011;63344;46.980;28.882;2023-04-24T11:53:06;4.28;;;2.85;;
71856;SDS011;63344;46.980;28.882;2023-04-24T11:55:33;7.82;;;3.47;;
71856;SDS011;63344;46.980;28.882;2023-04-24T11:58:01;6.10;;;3.15;;
71856;SDS011;63344;46.980;28.882;2023-04-24T12:00:53;5.30;;;2.03;;
71856;SDS011;63344;46.980;28.882;2023-04-24T12:03:23;4.68;;;2.88;;
71856;SDS011;63344;46.980;28.882;2023-04-24T12:05:50;2.58;;;1.48;;
71856;SDS011;63344;46.980;28.882;2023-04-24T12:08:30;3.28;;;2.53;;
71856;SDS011;63344;46.980;28.882;2023-04-24T12:11:01;5.47;;;3.88;;
71856;SDS011;63344;46.980;28.882;2023-04-24T12:15:59;5.80;;;3.17;;
71856;SDS011;63344;46.980;28.882;2023-04-24T12:18:31;4.60;;;2.53;;
71856;SDS011;63344;46.980;28.882;2023-04-24T12:21:21;3.20;;;1.65;;
71856;SDS011;63344;46.980;28.882;2023-04-24T12:23:54;3.15;;;1.73;;
71856;SDS011;63344;46.980;28.882;2023-04-24T12:26:22;5.00;;;3.08;;
71856;SDS011;63344;46.980;28.882;2023-04-24T12:28:53;4.75;;;2.47;;
71856;SDS011;63344;46.980;28.882;2023-04-24T12:31:20;6.03;;;2.53;;
71856;SDS011;63344;46.980;28.882;2023-04-24T12:33:48;4.75;;;2.97;;
71856;SDS011;63344;46.980;28.882;2023-04-24T12:36:15;5.10;;;2.80;;
71856;SDS011;63344;46.980;28.882;2023-04-24T12:38:43;7.75;;;4.28;;
71856;SDS011;63344;46.980;28.882;2023-04-24T12:41:15;6.47;;;3.50;;
71856;SDS011;63344;46.980;28.882;2023-04-24T12:43:53;8.70;;;3.25;;
71856;SDS011;63344;46.980;28.882;2023-04-24T12:46:26;4.28;;;2.50;;
71856;SDS011;63344;46.980;28.882;2023-04-24T12:48:53;3.33;;;2.60;;
71856;SDS011;63344;46.980;28.882;2023-04-24T12:51:20;2.88;;;2.05;;
71856;SDS011;63344;46.980;28.882;2023-04-24T12:53:47;4.20;;;2.72;;
71856;SDS011;63344;46.980;28.882;2023-04-24T12:56:14;4.97;;;3.28;;
71856;SDS011;63344;46.980;28.882;2023-04-24T12:58:43;5.50;;;3.55;;
71856;SDS011;63344;46.980;28.882;2023-04-24T13:01:12;5.32;;;2.00;;
71856;SDS011;63344;46.980;28.882;2023-04-24T13:03:39;5.18;;;2.60;;
71856;SDS011;63344;46.980;28.882;2023-04-24T13:06:07;3.38;;;2.50;;
71856;SDS011;63344;46.980;28.882;2023-04-24T13:08:34;3.67;;;2.22;;
71856;SDS011;63344;46.980;28.882;2023-04-24T13:11:01;5.82;;;3.15;;
71856;SDS011;63344;46.980;28.882;2023-04-24T13:13:36;4.28;;;2.90;;
71856;SDS011;63344;46.980;28.882;2023-04-24T13:16:05;5.47;;;2.85;;
71856;SDS011;63344;46.980;28.882;2023-04-24T13:18:32;3.45;;;2.63;;
71856;SDS011;63344;46.980;28.882;2023-04-24T13:20:59;4.70;;;3.10;;
71856;SDS011;63344;46.980;28.882;2023-04-24T13:23:26;5.03;;;2.78;;
71856;SDS011;63344;46.980;28.882;2023-04-24T13:25:57;4.32;;;2.78;;
71856;SDS011;63344;46.980;28.882;2023-04-24T13:28:25;6.40;;;3.30;;
71856;SDS011;63344;46.980;28.882;2023-04-24T13:30:52;3.78;;;2.97;;
71856;SDS011;63344;46.980;28.882;2023-04-24T13:33:20;6.82;;;2.78;;
71856;SDS011;63344;46.980;28.882;2023-04-24T13:35:48;6.22;;;2.90;;
71856;SDS011;63344;46.980;28.882;2023-04-24T13:38:22;5.32;;;3.05;;
71856;SDS011;63344;46.980;28.882;2023-04-24T13:40:49;2.85;;;2.00;;
71856;SDS011;63344;46.980;28.882;2023-04-24T13:43:18;3.17;;;2.60;;
71856;SDS011;63344;46.980;28.882;2023-04-24T13:45:45;6.07;;;2.72;;
71856;SDS011;63344;46.980;28.882;2023-04-24T13:48:13;7.28;;;3.38;;
71856;SDS011;63344;46.980;28.882;2023-04-24T13:50:42;3.63;;;2.10;;
71856;SDS011;63344;46.980;28.882;2023-04-24T13:53:10;7.43;;;2.17;;
71856;SDS011;63344;46.980;28.882;2023-04-24T13:55:37;5.97;;;2.60;;
71856;SDS011;63344;46.980;28.882;2023-04-24T13:58:06;6.30;;;2.90;;
71856;SDS011;63344;46.980;28.882;2023-04-24T14:00:36;10.75;;;5.05;;
71856;SDS011;63344;46.980;28.882;2023-04-24T14:03:06;6.05;;;3.00;;
71856;SDS011;63344;46.980;28.882;2023-04-24T14:05:35;6.88;;;3.00;;
71856;SDS011;63344;46.980;28.882;2023-04-24T14:08:20;4.45;;;3.08;;
71856;SDS011;63344;46.980;28.882;2023-04-24T14:10:48;3.85;;;2.78;;
71856;SDS011;63344;46.980;28.882;2023-04-24T14:13:15;3.95;;;2.55;;
71856;SDS011;63344;46.980;28.882;2023-04-24T14:15:43;6.93;;;3.75;;
71856;SDS011;63344;46.980;28.882;2023-04-24T14:18:13;5.32;;;3.22;;
71856;SDS011;63344;46.980;28.882;2023-04-24T14:20:41;4.38;;;2.65;;
71856;SDS011;63344;46.980;28.882;2023-04-24T14:23:08;6.38;;;3.50;;
71856;SDS011;63344;46.980;28.882;2023-04-24T14:25:35;4.53;;;3.10;;
71856;SDS011;63344;46.980;28.882;2023-04-24T14:28:03;3.97;;;2.42;;
71856;SDS011;63344;46.980;28.882;2023-04-24T14:30:50;5.03;;;2.60;;
71856;SDS011;63344;46.980;28.882;2023-04-24T14:33:19;4.32;;;2.63;;
71856;SDS011;63344;46.980;28.882;2023-04-24T14:35:47;8.05;;;3.90;;
71856;SDS011;63344;46.980;28.882;2023-04-24T14:38:14;5.78;;;3.15;;
71856;SDS011;63344;46.980;28.882;2023-04-24T14:40:42;5.50;;;3.42;;
71856;SDS011;63344;46.980;28.882;2023-04-24T14:43:12;3.70;;;2.05;;
71856;SDS011;63344;46.980;28.882;2023-04-24T14:45:39;3.08;;;2.35;;
71856;SDS011;63344;46.980;28.882;2023-04-24T14:48:07;3.10;;;2.67;;
71856;SDS011;63344;46.980;28.882;2023-04-24T14:50:36;4.88;;;2.92;;
71856;SDS011;63344;46.980;28.882;2023-04-24T14:53:05;5.63;;;3.08;;
71856;SDS011;63344;46.980;28.882;2023-04-24T14:55:32;5.15;;;3.00;;
71856;SDS011;63344;46.980;28.882;2023-04-24T14:58:07;6.03;;;3.10;;
71856;SDS011;63344;46.980;28.882;2023-04-24T15:00:35;3.10;;;2.30;;